Time,TemperatureF,DewpointF,PressureIn,WindDirection,WindDirectionDegrees,WindSpeedMPH,WindSpeedGustMPH,Humidity,HourlyPrecipIn,Conditions,Clouds,dailyrainin,SoftwareType,DateUTC
2013-02-10 00:01:00,13.0,6.0,30.17,WNW,291,4.0,10.0,73,0.00,,,0.00,,2013-02-10 05:01:00,
2013-02-10 00:11:00,13.0,6.0,30.17,WNW,291,4.0,10.0,73,0.00,,,0.00,,2013-02-10 05:11:00,
2013-02-10 00:22:00,13.0,6.0,30.17,WNW,291,4.0,10.0,73,0.00,,,0.00,,2013-02-10 05:22:00,
2013-02-10 00:32:00,13.0,6.0,30.19,WNW,298,3.0,8.0,73,0.00,,,0.00,,2013-02-10 05:32:00,
2013-02-10 00:42:00,13.0,6.0,30.19,WNW,298,3.0,8.0,73,0.00,,,0.00,,2013-02-10 05:42:00,
2013-02-10 00:52:00,13.0,6.0,30.19,WNW,293,3.0,9.0,74,0.00,,,0.00,,2013-02-10 05:52:00,
2013-02-10 01:02:00,13.0,6.0,30.20,WNW,296,2.0,10.0,74,0.00,,,0.00,,2013-02-10 06:02:00,
2013-02-10 01:11:00,13.0,6.0,30.20,WNW,296,2.0,10.0,74,0.00,,,0.00,,2013-02-10 06:11:00,
2013-02-10 01:21:00,13.0,6.0,30.20,WNW,296,2.0,10.0,74,0.00,,,0.00,,2013-02-10 06:21:00,
2013-02-10 01:32:00,13.0,6.0,30.21,WNW,287,3.0,9.0,73,0.00,,,0.00,,2013-02-10 06:32:00,
2013-02-10 01:42:00,13.0,6.0,30.21,WNW,287,3.0,9.0,73,0.00,,,0.00,,2013-02-10 06:42:00,
2013-02-10 01:51:00,13.0,6.0,30.21,WNW,287,3.0,9.0,73,0.00,,,0.00,,2013-02-10 06:51:00,
2013-02-10 02:01:00,12.0,5.0,30.22,WNW,298,1.0,6.0,74,0.00,,,0.00,,2013-02-10 07:01:00,
2013-02-10 02:11:00,12.0,5.0,30.22,WNW,298,1.0,6.0,74,0.00,,,0.00,,2013-02-10 07:11:00,
2013-02-10 02:21:00,11.0,4.0,30.22,NNW,330,0.0,3.0,74,0.00,,,0.00,,2013-02-10 07:21:00,
2013-02-10 02:32:00,10.0,4.0,30.22,NW,319,0.0,3.0,75,0.00,,,0.00,,2013-02-10 07:32:00,
2013-02-10 02:42:00,10.0,4.0,30.22,NW,319,0.0,3.0,75,0.00,,,0.00,,2013-02-10 07:42:00,
2013-02-10 02:51:00,10.0,4.0,30.22,WNW,293,1.0,7.0,75,0.00,,,0.00,,2013-02-10 07:51:00,
2013-02-10 03:01:00,9.0,3.0,30.22,NW,316,0.0,1.0,75,0.00,,,0.00,,2013-02-10 08:01:00,
2013-02-10 03:11:00,9.0,3.0,30.22,NW,316,0.0,1.0,75,0.00,,,0.00,,2013-02-10 08:11:00,
2013-02-10 03:21:00,8.0,2.0,30.23,NW,313,0.0,2.0,75,0.00,,,0.00,,2013-02-10 08:21:00,
2013-02-10 03:32:00,5.0,0.0,30.22,WNW,291,1.0,5.0,78,0.00,,,0.00,,2013-02-10 08:32:00,
2013-02-10 03:52:00,6.0,1.0,30.23,WNW,285,2.0,7.0,78,0.00,,,0.00,,2013-02-10 08:52:00,
2013-02-10 04:02:00,9.0,3.0,30.24,West,281,1.0,6.0,75,0.00,,,0.00,,2013-02-10 09:02:00,
2013-02-10 04:11:00,9.0,3.0,30.24,West,281,1.0,6.0,75,0.00,,,0.00,,2013-02-10 09:11:00,
2013-02-10 04:21:00,10.0,3.0,30.23,WNW,292,3.0,10.0,74,0.00,,,0.00,,2013-02-10 09:21:00,
2013-02-10 04:32:00,13.0,5.0,30.24,WNW,292,3.0,9.0,70,0.00,,,0.00,,2013-02-10 09:32:00,
2013-02-10 04:42:00,13.0,5.0,30.24,WNW,292,3.0,9.0,70,0.00,,,0.00,,2013-02-10 09:42:00,
2013-02-10 04:51:00,13.0,5.0,30.24,WNW,295,3.0,8.0,69,0.00,,,0.00,,2013-02-10 09:51:00,
2013-02-10 05:01:00,14.0,6.0,30.25,WNW,294,3.0,8.0,69,0.00,,,0.00,,2013-02-10 10:01:00,
2013-02-10 05:11:00,14.0,6.0,30.25,WNW,294,3.0,8.0,69,0.00,,,0.00,,2013-02-10 10:11:00,
2013-02-10 05:21:00,14.0,6.0,30.26,NW,304,3.0,10.0,69,0.00,,,0.00,,2013-02-10 10:21:00,
2013-02-10 05:31:00,13.0,5.0,30.27,NW,305,1.0,5.0,69,0.00,,,0.00,,2013-02-10 10:31:00,
2013-02-10 05:42:00,13.0,5.0,30.27,NW,305,1.0,5.0,69,0.00,,,0.00,,2013-02-10 10:42:00,
2013-02-10 05:52:00,13.0,5.0,30.27,NW,307,2.0,8.0,69,0.00,,,0.00,,2013-02-10 10:52:00,
2013-02-10 06:01:00,12.0,4.0,30.28,West,273,1.0,5.0,71,0.00,,,0.00,,2013-02-10 11:01:00,
2013-02-10 06:11:00,12.0,4.0,30.28,West,273,1.0,5.0,71,0.00,,,0.00,,2013-02-10 11:11:00,
2013-02-10 06:22:00,12.0,4.0,30.28,NW,308,1.0,3.0,71,0.00,,,0.00,,2013-02-10 11:22:00,
2013-02-10 06:32:00,11.0,3.0,30.29,North,349,0.0,4.0,71,0.00,,,0.00,,2013-02-10 11:32:00,
2013-02-10 06:42:00,11.0,3.0,30.29,North,349,0.0,4.0,71,0.00,,,0.00,,2013-02-10 11:42:00,
2013-02-10 06:52:00,9.0,2.0,30.29,North,0,0.0,0.0,74,0.00,,,0.00,,2013-02-10 11:52:00,
2013-02-10 07:02:00,9.0,2.0,30.29,North,0,0.0,0.0,74,0.00,,,0.00,,2013-02-10 12:02:00,
2013-02-10 07:12:00,9.0,2.0,30.29,North,0,0.0,0.0,74,0.00,,,0.00,,2013-02-10 12:12:00,
2013-02-10 07:22:00,9.0,2.0,30.29,North,0,0.0,0.0,74,0.00,,,0.00,,2013-02-10 12:22:00,
2013-02-10 07:32:00,9.0,2.0,30.29,North,0,0.0,0.0,74,0.00,,,0.00,,2013-02-10 12:32:00,
2013-02-10 07:42:00,9.0,2.0,30.29,North,0,0.0,0.0,74,0.00,,,0.00,,2013-02-10 12:42:00,
2013-02-10 07:52:00,9.0,2.0,30.29,North,0,0.0,0.0,74,0.00,,,0.00,,2013-02-10 12:52:00,
2013-02-10 08:02:00,9.0,2.0,30.29,North,0,0.0,0.0,74,0.00,,,0.00,,2013-02-10 13:02:00,
2013-02-10 08:11:00,9.0,2.0,30.29,North,0,0.0,0.0,74,0.00,,,0.00,,2013-02-10 13:11:00,
2013-02-10 08:21:00,9.0,2.0,30.29,North,0,0.0,0.0,74,0.00,,,0.00,,2013-02-10 13:21:00,
2013-02-10 08:31:00,9.0,2.0,30.29,North,0,0.0,0.0,74,0.00,,,0.00,,2013-02-10 13:31:00,
2013-02-10 08:41:00,9.0,2.0,30.29,North,0,0.0,0.0,74,0.00,,,0.00,,2013-02-10 13:41:00,
2013-02-10 08:51:00,9.0,2.0,30.29,North,0,0.0,0.0,74,0.00,,,0.00,,2013-02-10 13:51:00,
2013-02-10 09:02:00,9.0,2.0,30.29,North,0,0.0,0.0,74,0.00,,,0.00,,2013-02-10 14:02:00,
2013-02-10 09:21:00,9.0,2.0,30.29,North,0,0.0,0.0,74,0.00,,,0.00,,2013-02-10 14:21:00,
2013-02-10 10:22:00,9.0,2.0,30.29,North,0,0.0,0.0,74,0.00,,,0.00,,2013-02-10 15:22:00,
2013-02-10 10:32:00,9.0,2.0,30.29,North,0,0.0,0.0,74,0.00,,,0.00,,2013-02-10 15:32:00,
2013-02-10 11:02:00,9.0,2.0,30.29,North,0,0.0,0.0,74,0.00,,,0.00,,2013-02-10 16:02:00,
2013-02-10 11:12:00,9.0,2.0,30.29,North,0,0.0,0.0,74,0.00,,,0.00,,2013-02-10 16:12:00,
2013-02-10 11:22:00,9.0,2.0,30.29,North,0,0.0,0.0,74,0.00,,,0.00,,2013-02-10 16:22:00,
2013-02-10 11:32:00,9.0,2.0,30.29,North,0,0.0,0.0,74,0.00,,,0.00,,2013-02-10 16:32:00,
2013-02-10 11:42:00,9.0,2.0,30.29,North,0,0.0,0.0,74,0.00,,,0.00,,2013-02-10 16:42:00,
2013-02-10 11:52:00,9.0,2.0,30.29,North,0,0.0,0.0,74,0.00,,,0.00,,2013-02-10 16:52:00,
2013-02-10 12:02:00,9.0,2.0,30.29,North,0,0.0,0.0,74,0.00,,,0.00,,2013-02-10 17:02:00,
2013-02-10 12:32:00,9.0,2.0,30.29,North,0,0.0,0.0,74,0.00,,,0.00,,2013-02-10 17:32:00,
2013-02-10 13:02:00,9.0,2.0,30.29,North,0,0.0,0.0,74,0.00,,,0.00,,2013-02-10 18:02:00,
2013-02-10 13:32:00,9.0,2.0,30.29,North,0,0.0,0.0,74,0.00,,,0.00,,2013-02-10 18:32:00,
2013-02-10 13:52:00,9.0,2.0,30.29,North,0,0.0,0.0,74,0.00,,,0.00,,2013-02-10 18:52:00,
2013-02-10 14:02:00,9.0,2.0,30.29,North,0,0.0,0.0,74,0.00,,,0.00,,2013-02-10 19:02:00,
2013-02-10 14:32:00,9.0,2.0,30.29,North,0,0.0,0.0,74,0.00,,,0.00,,2013-02-10 19:32:00,
2013-02-10 14:42:00,9.0,2.0,30.29,North,0,0.0,0.0,74,0.00,,,0.00,,2013-02-10 19:42:00,
2013-02-10 14:52:00,9.0,2.0,30.29,North,0,0.0,0.0,74,0.00,,,0.00,,2013-02-10 19:52:00,
2013-02-10 15:02:00,9.0,2.0,30.29,North,0,0.0,0.0,74,0.00,,,0.00,,2013-02-10 20:02:00,
2013-02-10 15:22:00,9.0,2.0,30.29,North,0,0.0,0.0,74,0.00,,,0.00,,2013-02-10 20:22:00,
2013-02-10 15:32:00,9.0,2.0,30.29,North,0,0.0,0.0,74,0.00,,,0.00,,2013-02-10 20:32:00,
2013-02-10 15:42:00,9.0,2.0,30.29,North,0,0.0,0.0,74,0.00,,,0.00,,2013-02-10 20:42:00,
2013-02-10 15:52:00,9.0,2.0,30.29,North,0,0.0,0.0,74,0.00,,,0.00,,2013-02-10 20:52:00,
2013-02-10 16:02:00,9.0,2.0,30.29,North,0,0.0,0.0,74,0.00,,,0.00,,2013-02-10 21:02:00,
2013-02-10 16:22:00,9.0,2.0,30.29,North,0,0.0,0.0,74,0.00,,,0.00,,2013-02-10 21:22:00,
2013-02-10 16:32:00,9.0,2.0,30.29,North,0,0.0,0.0,74,0.00,,,0.00,,2013-02-10 21:32:00,
2013-02-10 16:42:00,9.0,2.0,30.29,North,0,0.0,0.0,74,0.00,,,0.00,,2013-02-10 21:42:00,
2013-02-10 16:52:00,9.0,2.0,30.29,North,0,0.0,0.0,74,0.00,,,0.00,,2013-02-10 21:52:00,
2013-02-10 17:02:00,9.0,2.0,30.29,North,0,0.0,0.0,74,0.00,,,0.00,,2013-02-10 22:02:00,
2013-02-10 17:11:00,9.0,2.0,30.29,North,0,0.0,0.0,74,0.00,,,0.00,,2013-02-10 22:11:00,
2013-02-10 17:22:00,9.0,2.0,30.29,North,0,0.0,0.0,74,0.00,,,0.00,,2013-02-10 22:22:00,
2013-02-10 17:32:00,9.0,2.0,30.29,North,0,0.0,0.0,74,0.00,,,0.00,,2013-02-10 22:32:00,
2013-02-10 17:42:00,9.0,2.0,30.29,North,0,0.0,0.0,74,0.00,,,0.00,,2013-02-10 22:42:00,
2013-02-10 17:52:00,9.0,2.0,30.29,North,0,0.0,0.0,74,0.00,,,0.00,,2013-02-10 22:52:00,
2013-02-10 18:02:00,9.0,2.0,30.29,North,0,0.0,0.0,74,0.00,,,0.00,,2013-02-10 23:02:00,
2013-02-10 18:32:00,9.0,2.0,30.29,North,0,0.0,0.0,74,0.00,,,0.00,,2013-02-10 23:32:00,
2013-02-10 18:42:00,9.0,2.0,30.29,North,0,0.0,0.0,74,0.00,,,0.00,,2013-02-10 23:42:00,
2013-02-10 18:52:00,9.0,2.0,30.29,North,0,0.0,0.0,74,0.00,,,0.00,,2013-02-10 23:52:00,
2013-02-10 19:02:00,9.0,2.0,30.29,North,0,0.0,0.0,74,0.00,,,0.00,,2013-02-11 00:02:00,
2013-02-10 19:11:00,9.0,2.0,30.29,North,0,0.0,0.0,74,0.00,,,0.00,,2013-02-11 00:11:00,
2013-02-10 19:22:00,9.0,2.0,30.29,North,0,0.0,0.0,74,0.00,,,0.00,,2013-02-11 00:22:00,
2013-02-10 19:32:00,9.0,2.0,30.29,North,0,0.0,0.0,74,0.00,,,0.00,,2013-02-11 00:32:00,
2013-02-10 19:52:00,9.0,2.0,30.29,North,0,0.0,0.0,74,0.00,,,0.00,,2013-02-11 00:52:00,
2013-02-10 20:21:00,18.0,11.0,30.33,North,0,0.0,0.0,73,0.32,,,0.32,,2013-02-11 01:21:00,
2013-02-10 20:32:00,17.0,10.0,30.32,North,0,0.0,0.0,74,0.32,,,0.32,,2013-02-11 01:32:00,
2013-02-10 20:42:00,16.0,9.0,30.32,North,0,0.0,0.0,74,0.32,,,0.32,,2013-02-11 01:42:00,
2013-02-10 20:52:00,16.0,9.0,30.32,North,0,0.0,0.0,74,0.32,,,0.32,,2013-02-11 01:52:00,
2013-02-10 21:01:00,16.0,9.0,30.32,North,0,0.0,0.0,74,0.00,,,0.32,,2013-02-11 02:01:00,
2013-02-10 21:11:00,16.0,9.0,30.32,North,0,0.0,0.0,74,0.00,,,0.32,,2013-02-11 02:11:00,
2013-02-10 21:21:00,15.0,9.0,30.33,North,0,0.0,0.0,75,0.00,,,0.32,,2013-02-11 02:21:00,
2013-02-10 21:32:00,14.0,8.0,30.32,North,0,0.0,0.0,77,0.00,,,0.32,,2013-02-11 02:32:00,
2013-02-10 21:42:00,14.0,8.0,30.32,North,0,0.0,0.0,77,0.00,,,0.32,,2013-02-11 02:42:00,
2013-02-10 21:52:00,14.0,8.0,30.32,North,0,0.0,0.0,77,0.00,,,0.32,,2013-02-11 02:52:00,
2013-02-10 22:02:00,13.0,7.0,30.33,North,0,0.0,0.0,76,0.00,,,0.32,,2013-02-11 03:02:00,
2013-02-10 22:11:00,13.0,7.0,30.33,North,0,0.0,0.0,76,0.00,,,0.32,,2013-02-11 03:11:00,
2013-02-10 22:21:00,13.0,7.0,30.33,North,0,0.0,0.0,78,0.00,,,0.32,,2013-02-11 03:21:00,
2013-02-10 22:32:00,12.0,6.0,30.32,North,0,0.0,0.0,76,0.00,,,0.32,,2013-02-11 03:32:00,
2013-02-10 22:42:00,12.0,6.0,30.32,North,0,0.0,0.0,76,0.00,,,0.32,,2013-02-11 03:42:00,
2013-02-10 22:52:00,12.0,6.0,30.32,North,0,0.0,0.0,76,0.00,,,0.32,,2013-02-11 03:52:00,
2013-02-10 23:01:00,11.0,5.0,30.33,North,0,0.0,0.0,76,0.00,,,0.32,,2013-02-11 04:01:00,
2013-02-10 23:11:00,11.0,5.0,30.33,North,0,0.0,0.0,76,0.00,,,0.32,,2013-02-11 04:11:00,
2013-02-10 23:21:00,10.0,5.0,30.32,North,0,0.0,0.0,78,0.00,,,0.32,,2013-02-11 04:21:00,
2013-02-10 23:32:00,10.0,5.0,30.32,North,0,0.0,0.0,78,0.00,,,0.32,,2013-02-11 04:32:00,
2013-02-10 23:42:00,10.0,5.0,30.32,North,0,0.0,0.0,78,0.00,,,0.32,,2013-02-11 04:42:00,
2013-02-10 23:52:00,9.0,4.0,30.33,North,0,0.0,0.0,79,0.00,,,0.32,,2013-02-11 04:52:00,